SBSP/CGH METAR and TAF weather

Enter ICAO airport designator
Station Type Date Time Source
SBSP METAR 2022/07/01 02:00 UTC NOAA

SBSP 010200Z 12001KT CAVOK 14/11 Q1021


Station Type Date Time Source
SBSP Decoded METAR 2022/07/01 02:00 UTC NOAA

Sao Paulo/Congonhas Aeroporto, Brazil (SBSP) 23-37S 046-39W 802M
Jun 30, 2022 - 10:00 PM EDT / 2022.07.01 0200 UTC
Wind: from the ESE (120 degrees) at 1 MPH (1 KT):0
Visibility: greater than 7 mile(s):0
Temperature: 57 F (14 C)
Dew Point: 51 F (11 C)
Relative Humidity: 82%
Pressure (altimeter): 30.15 in. Hg (1021 hPa)
ob: SBSP 010200Z 12001KT CAVOK 14/11 Q1021
cycle: 2

Station Type Date Time Source
SBSP TAF 2022/07/01 06:21 UTC NOAA

TAF SBSP 010200Z 0106/0118 05003KT 7000 NSC TN11/0110Z TX23/0117Z PROB40 0107/0112 4000 BR SCT003
BECMG 0112/0114 CAVOK
BECMG 0115/0117 16010KT
RMK PGG

Example: see airport list